sensor_id;sensor_type;location;lat;lon;timestamp;P1;durP1;ratioP1;P2;durP2;ratioP2
1831;SDS011;1680;48.106;11.708;2023-03-23T00:00:18;3.57;;;2.90;;
1831;SDS011;1680;48.106;11.708;2023-03-23T00:02:46;3.40;;;2.30;;
1831;SDS011;1680;48.106;11.708;2023-03-23T00:05:13;3.50;;;3.20;;
1831;SDS011;1680;48.106;11.708;2023-03-23T00:07:41;3.97;;;3.30;;
1831;SDS011;1680;48.106;11.708;2023-03-23T00:10:10;3.40;;;3.10;;
1831;SDS011;1680;48.106;11.708;2023-03-23T00:12:38;5.07;;;3.27;;
1831;SDS011;1680;48.106;11.708;2023-03-23T00:15:07;3.30;;;3.00;;
1831;SDS011;1680;48.106;11.708;2023-03-23T00:17:38;3.17;;;2.97;;
1831;SDS011;1680;48.106;11.708;2023-03-23T00:20:06;2.90;;;2.70;;
1831;SDS011;1680;48.106;11.708;2023-03-23T00:22:36;2.73;;;2.53;;
1831;SDS011;1680;48.106;11.708;2023-03-23T00:25:06;3.47;;;3.17;;
1831;SDS011;1680;48.106;11.708;2023-03-23T00:27:34;2.43;;;2.23;;
1831;SDS011;1680;48.106;11.708;2023-03-23T00:30:03;2.67;;;2.47;;
1831;SDS011;1680;48.106;11.708;2023-03-23T00:32:31;2.60;;;2.40;;
1831;SDS011;1680;48.106;11.708;2023-03-23T00:34:59;3.10;;;2.90;;
1831;SDS011;1680;48.106;11.708;2023-03-23T00:37:26;4.20;;;2.90;;
1831;SDS011;1680;48.106;11.708;2023-03-23T00:39:54;2.77;;;2.40;;
1831;SDS011;1680;48.106;11.708;2023-03-23T00:42:22;3.30;;;3.00;;
1831;SDS011;1680;48.106;11.708;2023-03-23T00:44:51;4.10;;;2.93;;
1831;SDS011;1680;48.106;11.708;2023-03-23T00:47:26;2.60;;;2.37;;
1831;SDS011;1680;48.106;11.708;2023-03-23T00:49:55;2.93;;;2.73;;
1831;SDS011;1680;48.106;11.708;2023-03-23T00:52:22;2.83;;;2.63;;
1831;SDS011;1680;48.106;11.708;2023-03-23T00:54:50;2.73;;;2.53;;
1831;SDS011;1680;48.106;11.708;2023-03-23T00:57:17;3.03;;;2.63;;
1831;SDS011;1680;48.106;11.708;2023-03-23T00:59:45;3.33;;;3.13;;
1831;SDS011;1680;48.106;11.708;2023-03-23T01:02:12;3.43;;;2.87;;
1831;SDS011;1680;48.106;11.708;2023-03-23T01:04:41;2.93;;;2.63;;
1831;SDS011;1680;48.106;11.708;2023-03-23T01:07:09;3.80;;;2.87;;
1831;SDS011;1680;48.106;11.708;2023-03-23T01:09:38;3.70;;;3.30;;
1831;SDS011;1680;48.106;11.708;2023-03-23T01:12:10;3.30;;;3.00;;
1831;SDS011;1680;48.106;11.708;2023-03-23T01:14:37;2.80;;;2.60;;
1831;SDS011;1680;48.106;11.708;2023-03-23T01:17:04;2.90;;;2.60;;
1831;SDS011;1680;48.106;11.708;2023-03-23T01:19:32;3.00;;;2.80;;
1831;SDS011;1680;48.106;11.708;2023-03-23T01:22:01;4.30;;;3.20;;
1831;SDS011;1680;48.106;11.708;2023-03-23T01:24:28;3.00;;;2.80;;
1831;SDS011;1680;48.106;11.708;2023-03-23T01:26:57;3.00;;;2.70;;
1831;SDS011;1680;48.106;11.708;2023-03-23T01:29:26;3.20;;;2.90;;
1831;SDS011;1680;48.106;11.708;2023-03-23T01:31:54;2.80;;;2.30;;
1831;SDS011;1680;48.106;11.708;2023-03-23T01:34:21;3.00;;;2.67;;
1831;SDS011;1680;48.106;11.708;2023-03-23T01:36:48;2.47;;;2.27;;
1831;SDS011;1680;48.106;11.708;2023-03-23T01:39:17;3.63;;;2.63;;
1831;SDS011;1680;48.106;11.708;2023-03-23T01:41:44;2.70;;;2.27;;
1831;SDS011;1680;48.106;11.708;2023-03-23T01:47:12;4.57;;;2.93;;
1831;SDS011;1680;48.106;11.708;2023-03-23T01:49:40;2.70;;;2.30;;
1831;SDS011;1680;48.106;11.708;2023-03-23T01:52:12;3.03;;;2.73;;
1831;SDS011;1680;48.106;11.708;2023-03-23T01:54:44;3.40;;;3.10;;
1831;SDS011;1680;48.106;11.708;2023-03-23T01:57:14;2.83;;;2.40;;
1831;SDS011;1680;48.106;11.708;2023-03-23T01:59:43;3.70;;;2.67;;
1831;SDS011;1680;48.106;11.708;2023-03-23T02:02:14;3.40;;;2.90;;
1831;SDS011;1680;48.106;11.708;2023-03-23T02:08:04;3.70;;;3.00;;
1831;SDS011;1680;48.106;11.708;2023-03-23T02:10:35;2.97;;;2.60;;
1831;SDS011;1680;48.106;11.708;2023-03-23T02:13:05;3.03;;;2.77;;
1831;SDS011;1680;48.106;11.708;2023-03-23T02:15:36;3.57;;;3.03;;
1831;SDS011;1680;48.106;11.708;2023-03-23T02:18:17;3.00;;;2.70;;
1831;SDS011;1680;48.106;11.708;2023-03-23T02:21:06;3.20;;;2.40;;
1831;SDS011;1680;48.106;11.708;2023-03-23T02:23:52;2.60;;;2.40;;
1831;SDS011;1680;48.106;11.708;2023-03-23T02:26:40;2.63;;;2.17;;
1831;SDS011;1680;48.106;11.708;2023-03-23T02:32:31;3.70;;;2.53;;
1831;SDS011;1680;48.106;11.708;2023-03-23T02:35:16;3.07;;;2.67;;
1831;SDS011;1680;48.106;11.708;2023-03-23T02:37:47;2.43;;;2.17;;
1831;SDS011;1680;48.106;11.708;2023-03-23T02:40:18;2.70;;;2.37;;
1831;SDS011;1680;48.106;11.708;2023-03-23T02:42:52;2.77;;;2.30;;
1831;SDS011;1680;48.106;11.708;2023-03-23T02:45:22;2.47;;;2.13;;
1831;SDS011;1680;48.106;11.708;2023-03-23T02:47:53;2.63;;;2.40;;
1831;SDS011;1680;48.106;11.708;2023-03-23T02:50:24;3.80;;;2.77;;
1831;SDS011;1680;48.106;11.708;2023-03-23T02:52:53;2.63;;;2.00;;
1831;SDS011;1680;48.106;11.708;2023-03-23T02:55:23;2.80;;;2.37;;
1831;SDS011;1680;48.106;11.708;2023-03-23T02:57:53;2.73;;;2.23;;
1831;SDS011;1680;48.106;11.708;2023-03-23T03:00:22;2.50;;;2.30;;
1831;SDS011;1680;48.106;11.708;2023-03-23T03:02:49;2.07;;;1.97;;
1831;SDS011;1680;48.106;11.708;2023-03-23T03:05:21;2.40;;;2.20;;
1831;SDS011;1680;48.106;11.708;2023-03-23T03:08:13;3.83;;;2.63;;
1831;SDS011;1680;48.106;11.708;2023-03-23T03:10:49;3.40;;;1.90;;
1831;SDS011;1680;48.106;11.708;2023-03-23T03:13:27;4.23;;;2.23;;
1831;SDS011;1680;48.106;11.708;2023-03-23T03:16:00;2.60;;;2.40;;
1831;SDS011;1680;48.106;11.708;2023-03-23T03:18:34;2.17;;;1.97;;
1831;SDS011;1680;48.106;11.708;2023-03-23T03:21:08;2.20;;;1.97;;
1831;SDS011;1680;48.106;11.708;2023-03-23T03:23:39;2.40;;;1.93;;
1831;SDS011;1680;48.106;11.708;2023-03-23T03:26:09;2.67;;;2.20;;
1831;SDS011;1680;48.106;11.708;2023-03-23T03:28:42;2.40;;;2.20;;
1831;SDS011;1680;48.106;11.708;2023-03-23T03:31:13;1.83;;;1.73;;
1831;SDS011;1680;48.106;11.708;2023-03-23T03:33:44;2.40;;;1.70;;
1831;SDS011;1680;48.106;11.708;2023-03-23T03:36:15;2.40;;;2.20;;
1831;SDS011;1680;48.106;11.708;2023-03-23T03:38:47;3.27;;;2.00;;
1831;SDS011;1680;48.106;11.708;2023-03-23T03:41:16;2.80;;;2.50;;
1831;SDS011;1680;48.106;11.708;2023-03-23T03:43:45;4.03;;;1.97;;
1831;SDS011;1680;48.106;11.708;2023-03-23T03:46:12;3.37;;;1.80;;
1831;SDS011;1680;48.106;11.708;2023-03-23T03:48:39;3.10;;;2.23;;
1831;SDS011;1680;48.106;11.708;2023-03-23T03:51:07;1.90;;;1.80;;
1831;SDS011;1680;48.106;11.708;2023-03-23T03:53:36;2.93;;;1.97;;
1831;SDS011;1680;48.106;11.708;2023-03-23T03:56:04;4.20;;;1.80;;
1831;SDS011;1680;48.106;11.708;2023-03-23T03:58:32;2.53;;;2.33;;
1831;SDS011;1680;48.106;11.708;2023-03-23T04:01:01;2.30;;;2.13;;
1831;SDS011;1680;48.106;11.708;2023-03-23T04:03:29;1.97;;;1.87;;
1831;SDS011;1680;48.106;11.708;2023-03-23T04:05:56;2.67;;;2.40;;
1831;SDS011;1680;48.106;11.708;2023-03-23T04:08:24;2.33;;;2.13;;
1831;SDS011;1680;48.106;11.708;2023-03-23T04:10:54;2.53;;;2.33;;
1831;SDS011;1680;48.106;11.708;2023-03-23T04:13:21;2.00;;;1.90;;
1831;SDS011;1680;48.106;11.708;2023-03-23T04:15:49;1.90;;;1.80;;
1831;SDS011;1680;48.106;11.708;2023-03-23T04:18:16;2.00;;;1.90;;
1831;SDS011;1680;48.106;11.708;2023-03-23T04:20:44;2.60;;;1.97;;
1831;SDS011;1680;48.106;11.708;2023-03-23T04:23:14;2.43;;;2.07;;
1831;SDS011;1680;48.106;11.708;2023-03-23T04:25:45;2.37;;;2.17;;
1831;SDS011;1680;48.106;11.708;2023-03-23T04:28:13;3.57;;;2.40;;
1831;SDS011;1680;48.106;11.708;2023-03-23T04:30:42;2.10;;;2.00;;
1831;SDS011;1680;48.106;11.708;2023-03-23T04:33:09;2.10;;;1.93;;
1831;SDS011;1680;48.106;11.708;2023-03-23T04:35:39;3.10;;;2.00;;
1831;SDS011;1680;48.106;11.708;2023-03-23T04:38:07;2.20;;;2.00;;
1831;SDS011;1680;48.106;11.708;2023-03-23T04:40:35;2.43;;;2.23;;
1831;SDS011;1680;48.106;11.708;2023-03-23T04:43:04;2.00;;;1.90;;
1831;SDS011;1680;48.106;11.708;2023-03-23T04:45:34;3.20;;;2.40;;
1831;SDS011;1680;48.106;11.708;2023-03-23T04:48:06;2.60;;;2.40;;
1831;SDS011;1680;48.106;11.708;2023-03-23T04:50:34;2.00;;;1.90;;
1831;SDS011;1680;48.106;11.708;2023-03-23T04:53:04;2.83;;;2.53;;
1831;SDS011;1680;48.106;11.708;2023-03-23T04:55:31;3.90;;;2.00;;
1831;SDS011;1680;48.106;11.708;2023-03-23T04:58:01;2.50;;;2.20;;
1831;SDS011;1680;48.106;11.708;2023-03-23T05:00:28;2.10;;;2.00;;
1831;SDS011;1680;48.106;11.708;2023-03-23T05:02:57;3.10;;;2.17;;
1831;SDS011;1680;48.106;11.708;2023-03-23T05:05:25;2.00;;;1.90;;
1831;SDS011;1680;48.106;11.708;2023-03-23T05:07:55;2.57;;;2.13;;
1831;SDS011;1680;48.106;11.708;2023-03-23T05:10:23;3.20;;;1.93;;
1831;SDS011;1680;48.106;11.708;2023-03-23T05:12:52;3.07;;;2.30;;
1831;SDS011;1680;48.106;11.708;2023-03-23T05:15:19;2.63;;;2.20;;
1831;SDS011;1680;48.106;11.708;2023-03-23T05:17:47;2.63;;;2.40;;
1831;SDS011;1680;48.106;11.708;2023-03-23T05:20:16;2.63;;;2.43;;
1831;SDS011;1680;48.106;11.708;2023-03-23T05:22:45;2.70;;;2.00;;
1831;SDS011;1680;48.106;11.708;2023-03-23T05:25:14;2.70;;;2.17;;
1831;SDS011;1680;48.106;11.708;2023-03-23T05:27:44;2.30;;;2.10;;
1831;SDS011;1680;48.106;11.708;2023-03-23T05:30:14;2.07;;;1.97;;
1831;SDS011;1680;48.106;11.708;2023-03-23T05:32:42;2.20;;;2.00;;
1831;SDS011;1680;48.106;11.708;2023-03-23T05:35:10;2.03;;;1.90;;
1831;SDS011;1680;48.106;11.708;2023-03-23T05:37:39;2.57;;;2.33;;
1831;SDS011;1680;48.106;11.708;2023-03-23T05:40:06;2.30;;;2.10;;
1831;SDS011;1680;48.106;11.708;2023-03-23T05:42:34;2.30;;;2.20;;
1831;SDS011;1680;48.106;11.708;2023-03-23T05:45:02;2.63;;;2.10;;
1831;SDS011;1680;48.106;11.708;2023-03-23T05:47:30;2.27;;;1.83;;
1831;SDS011;1680;48.106;11.708;2023-03-23T05:49:58;2.33;;;2.23;;
1831;SDS011;1680;48.106;11.708;2023-03-23T05:52:26;2.10;;;2.00;;
1831;SDS011;1680;48.106;11.708;2023-03-23T05:54:55;2.43;;;2.23;;
1831;SDS011;1680;48.106;11.708;2023-03-23T05:57:22;4.03;;;2.40;;
1831;SDS011;1680;48.106;11.708;2023-03-23T05:59:49;2.40;;;2.20;;
1831;SDS011;1680;48.106;11.708;2023-03-23T06:02:17;3.10;;;2.07;;
1831;SDS011;1680;48.106;11.708;2023-03-23T06:04:44;2.50;;;2.30;;
1831;SDS011;1680;48.106;11.708;2023-03-23T06:07:14;2.40;;;2.20;;
1831;SDS011;1680;48.106;11.708;2023-03-23T06:09:41;2.83;;;2.40;;
1831;SDS011;1680;48.106;11.708;2023-03-23T06:12:10;3.70;;;2.00;;
1831;SDS011;1680;48.106;11.708;2023-03-23T06:14:37;2.30;;;2.10;;
1831;SDS011;1680;48.106;11.708;2023-03-23T06:17:04;2.30;;;2.10;;
1831;SDS011;1680;48.106;11.708;2023-03-23T06:19:33;2.37;;;2.17;;
1831;SDS011;1680;48.106;11.708;2023-03-23T06:22:00;3.40;;;2.57;;
1831;SDS011;1680;48.106;11.708;2023-03-23T06:24:27;2.67;;;2.10;;
1831;SDS011;1680;48.106;11.708;2023-03-23T06:26:54;2.33;;;2.20;;
1831;SDS011;1680;48.106;11.708;2023-03-23T06:29:23;2.47;;;2.27;;
1831;SDS011;1680;48.106;11.708;2023-03-23T06:31:51;3.03;;;2.30;;
1831;SDS011;1680;48.106;11.708;2023-03-23T06:34:21;2.70;;;2.50;;
1831;SDS011;1680;48.106;11.708;2023-03-23T06:36:48;3.40;;;3.00;;
1831;SDS011;1680;48.106;11.708;2023-03-23T06:39:15;4.80;;;3.03;;
1831;SDS011;1680;48.106;11.708;2023-03-23T06:41:42;4.80;;;2.60;;
1831;SDS011;1680;48.106;11.708;2023-03-23T06:44:10;3.37;;;2.43;;
1831;SDS011;1680;48.106;11.708;2023-03-23T06:46:40;3.10;;;2.43;;
1831;SDS011;1680;48.106;11.708;2023-03-23T06:49:08;6.37;;;2.50;;
1831;SDS011;1680;48.106;11.708;2023-03-23T06:51:36;3.43;;;2.40;;
1831;SDS011;1680;48.106;11.708;2023-03-23T06:54:03;3.13;;;2.50;;
1831;SDS011;1680;48.106;11.708;2023-03-23T06:56:31;3.20;;;2.77;;
1831;SDS011;1680;48.106;11.708;2023-03-23T06:58:59;2.47;;;2.27;;
1831;SDS011;1680;48.106;11.708;2023-03-23T07:01:26;2.83;;;2.53;;
1831;SDS011;1680;48.106;11.708;2023-03-23T07:03:55;3.47;;;2.70;;
1831;SDS011;1680;48.106;11.708;2023-03-23T07:06:23;3.33;;;2.57;;
1831;SDS011;1680;48.106;11.708;2023-03-23T07:08:51;5.40;;;2.60;;
1831;SDS011;1680;48.106;11.708;2023-03-23T07:11:18;2.63;;;2.37;;
1831;SDS011;1680;48.106;11.708;2023-03-23T07:13:46;3.37;;;2.80;;
1831;SDS011;1680;48.106;11.708;2023-03-23T07:16:14;2.80;;;2.60;;
1831;SDS011;1680;48.106;11.708;2023-03-23T07:18:43;2.77;;;2.57;;
1831;SDS011;1680;48.106;11.708;2023-03-23T07:21:11;3.30;;;3.00;;
1831;SDS011;1680;48.106;11.708;2023-03-23T07:23:38;3.80;;;3.37;;
1831;SDS011;1680;48.106;11.708;2023-03-23T07:26:06;4.80;;;2.90;;
1831;SDS011;1680;48.106;11.708;2023-03-23T07:28:34;3.13;;;2.83;;
1831;SDS011;1680;48.106;11.708;2023-03-23T07:31:01;3.00;;;2.80;;
1831;SDS011;1680;48.106;11.708;2023-03-23T07:33:28;3.13;;;2.83;;
1831;SDS011;1680;48.106;11.708;2023-03-23T07:35:58;2.87;;;2.67;;
1831;SDS011;1680;48.106;11.708;2023-03-23T07:38:27;3.17;;;2.90;;
1831;SDS011;1680;48.106;11.708;2023-03-23T07:40:55;4.37;;;2.87;;
1831;SDS011;1680;48.106;11.708;2023-03-23T07:43:23;5.10;;;2.63;;
1831;SDS011;1680;48.106;11.708;2023-03-23T07:45:51;3.23;;;2.93;;
1831;SDS011;1680;48.106;11.708;2023-03-23T07:48:18;3.30;;;2.70;;
1831;SDS011;1680;48.106;11.708;2023-03-23T07:50:46;2.90;;;2.70;;
1831;SDS011;1680;48.106;11.708;2023-03-23T07:53:13;3.50;;;2.50;;
1831;SDS011;1680;48.106;11.708;2023-03-23T07:55:41;3.57;;;3.10;;
1831;SDS011;1680;48.106;11.708;2023-03-23T07:58:09;3.37;;;3.07;;
1831;SDS011;1680;48.106;11.708;2023-03-23T08:00:37;4.60;;;2.87;;
1831;SDS011;1680;48.106;11.708;2023-03-23T08:03:05;3.50;;;3.07;;
1831;SDS011;1680;48.106;11.708;2023-03-23T08:05:33;3.30;;;3.00;;
1831;SDS011;1680;48.106;11.708;2023-03-23T08:08:00;3.17;;;2.90;;
1831;SDS011;1680;48.106;11.708;2023-03-23T08:10:27;3.63;;;2.87;;
1831;SDS011;1680;48.106;11.708;2023-03-23T08:12:56;4.73;;;2.97;;
1831;SDS011;1680;48.106;11.708;2023-03-23T08:15:24;5.97;;;2.93;;
1831;SDS011;1680;48.106;11.708;2023-03-23T08:17:52;6.20;;;3.20;;
1831;SDS011;1680;48.106;11.708;2023-03-23T08:20:19;75.40;;;9.07;;
1831;SDS011;1680;48.106;11.708;2023-03-23T08:22:51;57.73;;;7.27;;
1831;SDS011;1680;48.106;11.708;2023-03-23T08:25:20;19.70;;;4.70;;
1831;SDS011;1680;48.106;11.708;2023-03-23T08:27:49;14.87;;;3.90;;
1831;SDS011;1680;48.106;11.708;2023-03-23T08:30:18;6.73;;;2.80;;
1831;SDS011;1680;48.106;11.708;2023-03-23T08:32:51;10.23;;;3.90;;
1831;SDS011;1680;48.106;11.708;2023-03-23T08:35:18;3.90;;;3.50;;
1831;SDS011;1680;48.106;11.708;2023-03-23T08:37:46;3.60;;;3.23;;
1831;SDS011;1680;48.106;11.708;2023-03-23T08:40:16;7.40;;;3.37;;
1831;SDS011;1680;48.106;11.708;2023-03-23T08:42:46;3.90;;;3.30;;
1831;SDS011;1680;48.106;11.708;2023-03-23T08:45:14;4.40;;;3.17;;
1831;SDS011;1680;48.106;11.708;2023-03-23T08:47:44;3.50;;;3.20;;
1831;SDS011;1680;48.106;11.708;2023-03-23T08:50:15;4.40;;;3.00;;
1831;SDS011;1680;48.106;11.708;2023-03-23T08:52:43;4.73;;;2.80;;
1831;SDS011;1680;48.106;11.708;2023-03-23T08:55:10;5.70;;;3.50;;
1831;SDS011;1680;48.106;11.708;2023-03-23T08:57:38;5.37;;;3.40;;
1831;SDS011;1680;48.106;11.708;2023-03-23T09:00:08;3.17;;;2.80;;
1831;SDS011;1680;48.106;11.708;2023-03-23T09:02:45;3.50;;;3.20;;
1831;SDS011;1680;48.106;11.708;2023-03-23T09:05:13;3.43;;;2.97;;
1831;SDS011;1680;48.106;11.708;2023-03-23T09:07:42;4.90;;;3.40;;
1831;SDS011;1680;48.106;11.708;2023-03-23T09:10:11;4.30;;;3.10;;
1831;SDS011;1680;48.106;11.708;2023-03-23T09:12:39;3.33;;;3.03;;
1831;SDS011;1680;48.106;11.708;2023-03-23T09:15:07;3.40;;;3.10;;
1831;SDS011;1680;48.106;11.708;2023-03-23T09:17:37;2.70;;;2.50;;
1831;SDS011;1680;48.106;11.708;2023-03-23T09:20:08;2.90;;;2.70;;
1831;SDS011;1680;48.106;11.708;2023-03-23T09:22:37;3.57;;;3.10;;
1831;SDS011;1680;48.106;11.708;2023-03-23T09:25:05;3.50;;;2.70;;
1831;SDS011;1680;48.106;11.708;2023-03-23T09:27:33;3.17;;;2.90;;
1831;SDS011;1680;48.106;11.708;2023-03-23T09:30:02;2.80;;;2.60;;
1831;SDS011;1680;48.106;11.708;2023-03-23T09:32:31;4.07;;;3.27;;
1831;SDS011;1680;48.106;11.708;2023-03-23T09:34:59;4.13;;;2.40;;
1831;SDS011;1680;48.106;11.708;2023-03-23T09:37:28;3.97;;;3.57;;
1831;SDS011;1680;48.106;11.708;2023-03-23T09:39:56;3.10;;;2.80;;
1831;SDS011;1680;48.106;11.708;2023-03-23T09:45:33;3.70;;;2.90;;
1831;SDS011;1680;48.106;11.708;2023-03-23T09:48:16;3.37;;;2.93;;
1831;SDS011;1680;48.106;11.708;2023-03-23T09:50:56;3.37;;;3.07;;
1831;SDS011;1680;48.106;11.708;2023-03-23T09:53:29;3.50;;;2.70;;
1831;SDS011;1680;48.106;11.708;2023-03-23T09:56:02;3.00;;;2.70;;
1831;SDS011;1680;48.106;11.708;2023-03-23T09:58:39;3.20;;;2.90;;
1831;SDS011;1680;48.106;11.708;2023-03-23T10:01:15;2.80;;;2.60;;
1831;SDS011;1680;48.106;11.708;2023-03-23T10:03:46;3.67;;;3.37;;
1831;SDS011;1680;48.106;11.708;2023-03-23T10:06:14;3.30;;;3.00;;
1831;SDS011;1680;48.106;11.708;2023-03-23T10:08:46;3.87;;;2.80;;
1831;SDS011;1680;48.106;11.708;2023-03-23T10:11:21;3.90;;;2.90;;
1831;SDS011;1680;48.106;11.708;2023-03-23T10:13:59;3.80;;;3.40;;
1831;SDS011;1680;48.106;11.708;2023-03-23T10:16:37;4.73;;;3.27;;
1831;SDS011;1680;48.106;11.708;2023-03-23T10:19:09;4.13;;;3.27;;
1831;SDS011;1680;48.106;11.708;2023-03-23T10:21:40;3.87;;;3.47;;
1831;SDS011;1680;48.106;11.708;2023-03-23T10:24:15;4.67;;;3.40;;
1831;SDS011;1680;48.106;11.708;2023-03-23T10:26:48;3.83;;;3.43;;
1831;SDS011;1680;48.106;11.708;2023-03-23T10:29:26;3.67;;;3.37;;
1831;SDS011;1680;48.106;11.708;2023-03-23T10:31:58;3.63;;;3.33;;
1831;SDS011;1680;48.106;11.708;2023-03-23T10:34:30;4.20;;;3.90;;
1831;SDS011;1680;48.106;11.708;2023-03-23T10:37:01;4.43;;;4.03;;
1831;SDS011;1680;48.106;11.708;2023-03-23T10:39:38;4.23;;;3.33;;
1831;SDS011;1680;48.106;11.708;2023-03-23T10:42:10;4.33;;;3.80;;
1831;SDS011;1680;48.106;11.708;2023-03-23T10:44:38;5.00;;;3.63;;
1831;SDS011;1680;48.106;11.708;2023-03-23T10:47:06;4.27;;;3.83;;
1831;SDS011;1680;48.106;11.708;2023-03-23T10:49:37;4.23;;;3.83;;
1831;SDS011;1680;48.106;11.708;2023-03-23T10:52:11;11.83;;;3.80;;
1831;SDS011;1680;48.106;11.708;2023-03-23T10:54:49;7.50;;;5.20;;
1831;SDS011;1680;48.106;11.708;2023-03-23T10:57:22;5.97;;;4.13;;
1831;SDS011;1680;48.106;11.708;2023-03-23T10:59:57;4.97;;;3.87;;
1831;SDS011;1680;48.106;11.708;2023-03-23T11:02:26;4.20;;;3.80;;
1831;SDS011;1680;48.106;11.708;2023-03-23T11:04:59;4.40;;;3.60;;
1831;SDS011;1680;48.106;11.708;2023-03-23T11:07:29;4.23;;;3.83;;
1831;SDS011;1680;48.106;11.708;2023-03-23T11:10:05;6.00;;;3.80;;
1831;SDS011;1680;48.106;11.708;2023-03-23T11:12:35;4.50;;;4.10;;
1831;SDS011;1680;48.106;11.708;2023-03-23T11:17:54;4.83;;;4.27;;
1831;SDS011;1680;48.106;11.708;2023-03-23T11:20:23;5.30;;;4.23;;
1831;SDS011;1680;48.106;11.708;2023-03-23T11:22:51;5.43;;;4.77;;
1831;SDS011;1680;48.106;11.708;2023-03-23T11:25:21;4.70;;;4.30;;
1831;SDS011;1680;48.106;11.708;2023-03-23T11:27:49;4.87;;;4.47;;
1831;SDS011;1680;48.106;11.708;2023-03-23T11:30:21;4.90;;;4.50;;
1831;SDS011;1680;48.106;11.708;2023-03-23T11:32:52;4.73;;;3.80;;
1831;SDS011;1680;48.106;11.708;2023-03-23T11:35:23;4.73;;;3.97;;
1831;SDS011;1680;48.106;11.708;2023-03-23T11:37:54;5.07;;;4.23;;
1831;SDS011;1680;48.106;11.708;2023-03-23T11:40:24;5.23;;;4.33;;
1831;SDS011;1680;48.106;11.708;2023-03-23T11:42:57;5.27;;;4.77;;
1831;SDS011;1680;48.106;11.708;2023-03-23T11:45:30;4.43;;;4.03;;
1831;SDS011;1680;48.106;11.708;2023-03-23T11:48:10;5.90;;;4.70;;
1831;SDS011;1680;48.106;11.708;2023-03-23T11:50:47;5.63;;;4.40;;
1831;SDS011;1680;48.106;11.708;2023-03-23T11:53:20;5.40;;;4.43;;
1831;SDS011;1680;48.106;11.708;2023-03-23T11:56:03;6.13;;;4.47;;
1831;SDS011;1680;48.106;11.708;2023-03-23T11:58:36;8.47;;;4.40;;
1831;SDS011;1680;48.106;11.708;2023-03-23T12:01:05;5.40;;;4.60;;
1831;SDS011;1680;48.106;11.708;2023-03-23T12:06:34;5.80;;;4.77;;
1831;SDS011;1680;48.106;11.708;2023-03-23T12:09:15;5.40;;;4.53;;
1831;SDS011;1680;48.106;11.708;2023-03-23T12:12:07;4.70;;;4.30;;
1831;SDS011;1680;48.106;11.708;2023-03-23T12:14:46;4.33;;;3.90;;
1831;SDS011;1680;48.106;11.708;2023-03-23T12:17:23;4.83;;;4.30;;
1831;SDS011;1680;48.106;11.708;2023-03-23T12:20:02;4.40;;;3.80;;
1831;SDS011;1680;48.106;11.708;2023-03-23T12:22:52;4.23;;;3.83;;
1831;SDS011;1680;48.106;11.708;2023-03-23T12:25:43;5.37;;;4.57;;
1831;SDS011;1680;48.106;11.708;2023-03-23T12:28:25;4.40;;;3.80;;
1831;SDS011;1680;48.106;11.708;2023-03-23T12:31:01;5.73;;;4.20;;
1831;SDS011;1680;48.106;11.708;2023-03-23T12:33:38;6.13;;;4.07;;
1831;SDS011;1680;48.106;11.708;2023-03-23T12:36:19;6.80;;;4.20;;
1831;SDS011;1680;48.106;11.708;2023-03-23T12:38:58;5.30;;;4.00;;
1831;SDS011;1680;48.106;11.708;2023-03-23T12:41:38;5.23;;;4.23;;
1831;SDS011;1680;48.106;11.708;2023-03-23T12:44:15;3.50;;;3.20;;
1831;SDS011;1680;48.106;11.708;2023-03-23T12:46:56;4.80;;;3.87;;
1831;SDS011;1680;48.106;11.708;2023-03-23T12:49:34;4.50;;;3.77;;
1831;SDS011;1680;48.106;11.708;2023-03-23T12:52:09;5.00;;;3.63;;
1831;SDS011;1680;48.106;11.708;2023-03-23T12:54:42;4.50;;;4.00;;
1831;SDS011;1680;48.106;11.708;2023-03-23T12:57:18;4.67;;;4.17;;
1831;SDS011;1680;48.106;11.708;2023-03-23T12:59:54;5.07;;;4.00;;
1831;SDS011;1680;48.106;11.708;2023-03-23T13:02:37;3.80;;;3.50;;
1831;SDS011;1680;48.106;11.708;2023-03-23T13:05:09;3.73;;;3.33;;
1831;SDS011;1680;48.106;11.708;2023-03-23T13:07:42;4.67;;;3.80;;
1831;SDS011;1680;48.106;11.708;2023-03-23T13:10:15;4.00;;;3.60;;
1831;SDS011;1680;48.106;11.708;2023-03-23T13:12:47;3.87;;;3.53;;
1831;SDS011;1680;48.106;11.708;2023-03-23T13:15:21;4.63;;;3.13;;
1831;SDS011;1680;48.106;11.708;2023-03-23T13:17:58;3.60;;;3.30;;
1831;SDS011;1680;48.106;11.708;2023-03-23T13:23:23;4.97;;;3.23;;
1831;SDS011;1680;48.106;11.708;2023-03-23T13:25:55;3.30;;;3.00;;
1831;SDS011;1680;48.106;11.708;2023-03-23T13:28:27;3.40;;;3.10;;
1831;SDS011;1680;48.106;11.708;2023-03-23T13:30:58;3.03;;;2.73;;
1831;SDS011;1680;48.106;11.708;2023-03-23T13:33:31;4.70;;;2.80;;
1831;SDS011;1680;48.106;11.708;2023-03-23T13:36:04;3.43;;;2.60;;
1831;SDS011;1680;48.106;11.708;2023-03-23T13:38:35;4.00;;;2.70;;
1831;SDS011;1680;48.106;11.708;2023-03-23T13:41:08;2.40;;;2.20;;
1831;SDS011;1680;48.106;11.708;2023-03-23T13:43:38;3.00;;;2.70;;
1831;SDS011;1680;48.106;11.708;2023-03-23T13:46:10;2.90;;;2.60;;
1831;SDS011;1680;48.106;11.708;2023-03-23T13:48:42;3.70;;;2.40;;
1831;SDS011;1680;48.106;11.708;2023-03-23T13:51:25;3.00;;;2.37;;
1831;SDS011;1680;48.106;11.708;2023-03-23T13:54:06;2.53;;;2.30;;
1831;SDS011;1680;48.106;11.708;2023-03-23T13:56:42;3.80;;;3.00;;
1831;SDS011;1680;48.106;11.708;2023-03-23T13:59:15;2.73;;;2.40;;
1831;SDS011;1680;48.106;11.708;2023-03-23T14:01:57;4.30;;;2.50;;
1831;SDS011;1680;48.106;11.708;2023-03-23T14:05:30;2.50;;;2.30;;
1831;SDS011;1680;48.106;11.708;2023-03-23T14:08:01;3.00;;;2.30;;
1831;SDS011;1680;48.106;11.708;2023-03-23T14:10:36;8.53;;;2.80;;
1831;SDS011;1680;48.106;11.708;2023-03-23T14:13:09;2.60;;;2.40;;
1831;SDS011;1680;48.106;11.708;2023-03-23T14:15:42;2.40;;;2.20;;
1831;SDS011;1680;48.106;11.708;2023-03-23T14:18:15;3.10;;;2.60;;
1831;SDS011;1680;48.106;11.708;2023-03-23T14:20:45;3.40;;;2.40;;
1831;SDS011;1680;48.106;11.708;2023-03-23T14:23:16;3.10;;;2.77;;
1831;SDS011;1680;48.106;11.708;2023-03-23T14:25:45;2.83;;;2.60;;
1831;SDS011;1680;48.106;11.708;2023-03-23T14:28:21;4.40;;;2.80;;
1831;SDS011;1680;48.106;11.708;2023-03-23T14:30:51;2.70;;;2.50;;
1831;SDS011;1680;48.106;11.708;2023-03-23T14:33:23;3.03;;;2.73;;
1831;SDS011;1680;48.106;11.708;2023-03-23T14:35:53;2.83;;;2.57;;
1831;SDS011;1680;48.106;11.708;2023-03-23T14:38:23;3.10;;;2.80;;
1831;SDS011;1680;48.106;11.708;2023-03-23T14:40:59;3.60;;;2.47;;
1831;SDS011;1680;48.106;11.708;2023-03-23T14:43:28;2.57;;;2.37;;
1831;SDS011;1680;48.106;11.708;2023-03-23T14:45:58;2.80;;;2.50;;
1831;SDS011;1680;48.106;11.708;2023-03-23T14:48:29;2.57;;;2.37;;
1831;SDS011;1680;48.106;11.708;2023-03-23T14:50:57;3.63;;;2.60;;
1831;SDS011;1680;48.106;11.708;2023-03-23T14:53:29;3.77;;;2.50;;
1831;SDS011;1680;48.106;11.708;2023-03-23T14:55:59;3.57;;;2.47;;
1831;SDS011;1680;48.106;11.708;2023-03-23T14:58:29;2.03;;;1.93;;
1831;SDS011;1680;48.106;11.708;2023-03-23T15:00:58;2.67;;;2.40;;
1831;SDS011;1680;48.106;11.708;2023-03-23T15:03:27;3.57;;;2.60;;
1831;SDS011;1680;48.106;11.708;2023-03-23T15:06:03;2.53;;;2.33;;
1831;SDS011;1680;48.106;11.708;2023-03-23T15:08:33;3.47;;;2.77;;
1831;SDS011;1680;48.106;11.708;2023-03-23T15:11:06;2.83;;;2.63;;
1831;SDS011;1680;48.106;11.708;2023-03-23T15:13:41;2.30;;;2.10;;
1831;SDS011;1680;48.106;11.708;2023-03-23T15:16:12;2.53;;;2.33;;
1831;SDS011;1680;48.106;11.708;2023-03-23T15:18:44;5.10;;;2.50;;
1831;SDS011;1680;48.106;11.708;2023-03-23T15:21:19;2.60;;;2.40;;
1831;SDS011;1680;48.106;11.708;2023-03-23T15:23:50;3.10;;;2.37;;
1831;SDS011;1680;48.106;11.708;2023-03-23T15:26:25;2.90;;;2.40;;
1831;SDS011;1680;48.106;11.708;2023-03-23T15:29:10;2.60;;;2.37;;
1831;SDS011;1680;48.106;11.708;2023-03-23T15:31:40;3.77;;;2.73;;
1831;SDS011;1680;48.106;11.708;2023-03-23T15:34:12;3.00;;;2.50;;
1831;SDS011;1680;48.106;11.708;2023-03-23T15:36:43;3.97;;;2.23;;
1831;SDS011;1680;48.106;11.708;2023-03-23T15:39:11;2.67;;;2.47;;
1831;SDS011;1680;48.106;11.708;2023-03-23T15:41:45;2.60;;;2.10;;
1831;SDS011;1680;48.106;11.708;2023-03-23T15:44:22;6.67;;;2.90;;